Zprávy METAR z letišť v České republice

LKPR - Praha Ruzyně, Česká republika
Vzdálenost od této stanice: ZJZ 98km
Aktualizováno: 16.12.2018 19:30
 
Teplota vzduchu: -3°C
Chlad větru: -7°C
Vítr: JJV 11 km/h
Rosný bod: -5°C
Vlhkost vzduchu: 86%
Tlak vzduchu: 1015 hPa
Oblačnost: zataženo
Viditelnost: 10 km
Detaily oblačnosti: zataženo 762 m
2018/12/16 18:30 LKPR 161830Z 16006KT 9999 OVC025 M03/M05 Q1015 R24/29//95 R30/590195 NOSIG
LKTB - Brno Tuřany, Česká republika
Vzdálenost od této stanice: JJV 174km
Aktualizováno: 16.12.2018 19:30
 
Teplota vzduchu: -2°C
Chlad větru: -7°C
Vítr: VJV 15 km/h
Rosný bod: -5°C
Vlhkost vzduchu: 80%
Tlak vzduchu: 1018 hPa
Oblačnost: zataženo
Viditelnost: 10 km
Detaily oblačnosti: zataženo 671 m
2018/12/16 18:30 LKTB 161830Z 11008KT 9999 OVC022 M02/M05 Q1018 NOSIG
 
LKKV - Karlovy Vary, Česká republika
Vzdálenost od této stanice: Z 187km
Aktualizováno: 16.12.2018 19:30
 
Teplota vzduchu: -4°C
Vítr: J 6 km/h
Rosný bod: -5°C
Vlhkost vzduchu: 93%
Tlak vzduchu: 1012 hPa
Oblačnost: zataženo
Viditelnost: 8 km
Detaily oblačnosti: zataženo 213 m
2018/12/16 18:30 LKKV 161830Z 18003KT 140V210 8000 OVC007 M04/M05 Q1012 R29///////
LKMT - Ostrava Mošnov, Česká republika
Vzdálenost od této stanice: VJV 208km
Aktualizováno: 16.12.2018 19:30
 
Teplota vzduchu: -2°C
Chlad větru: -8°C
Vítr: JZ 22 km/h
Rosný bod: -6°C
Vlhkost vzduchu: 74%
Tlak vzduchu: 1017 hPa
Oblačnost: skoro zataženo
Viditelnost: 10 km
Detaily oblačnosti: skoro zataženo 732 m
2018/12/16 18:30 LKMT 161830Z 22012KT 9999 BKN024 M02/M06 Q1017 NOSIG
 
LKPD - Pardubice, Česká republika
Vzdálenost od této stanice: JJV 56km
Aktualizováno: 16.12.2018 19:00
 
Teplota vzduchu: -3°C
Vítr: V 6 km/h
Rosný bod: -6°C
Vlhkost vzduchu: 80%
Tlak vzduchu: 1017 hPa
Oblačnost: skoro zataženo
Viditelnost: 10 km
Detaily oblačnosti: oblačno 701 m
skoro zataženo 3048 m
2018/12/16 18:00 LKPD 161800Z 09003KT 9999 SCT023 BKN100 M03/M06 Q1017 NOSIG
LKKB - Praha Kbely, Česká republika
Vzdálenost od této stanice: ZJZ 81km
Aktualizováno: 16.12.2018 19:00
 
Teplota vzduchu: -3°C
Chlad větru: -7°C
Vítr: JJV 9 km/h
Rosný bod: -6°C
Vlhkost vzduchu: 80%
Tlak vzduchu: 1015 hPa
Stav počasí: mírnější sníh
Oblačnost: zataženo
Viditelnost: 10 km
Detaily oblačnosti: skoro zataženo 914 m
zataženo 1189 m
2018/12/16 18:00 LKKB 161800Z 15005KT 9999 -SN BKN030 OVC039 M03/M06 Q1015
 
LKCV - Čáslav, Česká republika
Vzdálenost od této stanice: J 63km
Aktualizováno: 16.12.2018 19:00
 
Teplota vzduchu: -3°C
Chlad větru: -7°C
Vítr: JV 13 km/h
Rosný bod: -5°C
Vlhkost vzduchu: 86%
Tlak vzduchu: 1016 hPa
Oblačnost: skoro zataženo
Viditelnost: 10 km
Detaily oblačnosti: skoro jasno 640 m
skoro zataženo 2896 m
2018/12/16 18:00 LKCV 161800Z 13007KT 9999 FEW021 BKN095 M03/M05 Q1016 NOSIG
LKNA - Náměšť n. Osl., Česká republika
Vzdálenost od této stanice: JJV 154km
Aktualizováno: 16.12.2018 19:00
 
Teplota vzduchu: -4°C
Chlad větru: -8°C
Vítr: VJV 11 km/h
Rosný bod: -6°C
Vlhkost vzduchu: 86%
Tlak vzduchu: 1016 hPa
Oblačnost: zataženo
Viditelnost: 10 km
Detaily oblačnosti: zataženo 366 m
2018/12/16 18:00 LKNA 161800Z 11006KT 9999 OVC012 M04/M06 Q1016 NOSIG
 
LKLN - Plzeň Líně, Česká republika
Vzdálenost od této stanice: ZJZ 184km
Aktualizováno: 16.12.2018 19:00
 
Teplota vzduchu: -2°C
Vítr: J 6 km/h
Rosný bod: -3°C
Vlhkost vzduchu: 93%
Tlak vzduchu: 1015 hPa
Oblačnost: zataženo
Viditelnost: 9 km
Detaily oblačnosti: zataženo 640 m
2018/12/16 18:00 LKLN 161800Z AUTO 19003KT 160V220 9000 OVC021 M02/M03 Q1015
LKVO - Vodochody, Česká republika
Vzdálenost od této stanice: ZJZ 84km
Aktualizováno: 14.12.2018 15:00
Není aktuální
 
Teplota vzduchu: -1°C
Chlad větru: -5°C
Vítr: V 11 km/h
Rosný bod: -4°C
Vlhkost vzduchu: 80%
Tlak vzduchu: 1023 hPa
Oblačnost: skoro zataženo
Viditelnost: 10 km
Detaily oblačnosti: skoro zataženo 1036 m
2018/12/14 14:00 LKVO 141400Z 10006KT 9999 BKN034 M01/M04 Q1023

Metar display script od Saratoga-Weather.org
upravil a přeložil Miloš Jiřík